sensor_id;sensor_type;location;lat;lon;timestamp;pressure;altitude;pressure_sealevel;temperature;humidity
16120;BME280;12670;53.502;10.252;2023-03-03T03:13:38;102033.31;;;3.70;100.00
16120;BME280;12670;53.502;10.252;2023-03-03T03:16:40;102037.50;;;3.46;100.00
16120;BME280;12670;53.502;10.252;2023-03-03T03:19:43;102035.00;;;3.60;100.00
16120;BME280;12670;53.502;10.252;2023-03-03T03:22:46;102031.53;;;3.64;100.00
16120;BME280;12670;53.502;10.252;2023-03-03T03:25:49;102028.88;;;3.63;100.00
16120;BME280;12670;53.502;10.252;2023-03-03T03:28:53;102034.06;;;3.54;100.00
16120;BME280;12670;53.502;10.252;2023-03-03T03:31:56;102036.66;;;3.51;100.00
16120;BME280;12670;53.502;10.252;2023-03-03T03:34:59;102041.19;;;3.70;100.00
16120;BME280;12670;53.502;10.252;2023-03-03T03:38:01;102044.56;;;3.57;100.00
16120;BME280;12670;53.502;10.252;2023-03-03T03:41:05;102039.31;;;3.54;100.00
16120;BME280;12670;53.502;10.252;2023-03-03T03:44:09;102038.94;;;3.11;100.00
16120;BME280;12670;53.502;10.252;2023-03-03T03:47:12;102030.28;;;3.18;100.00
16120;BME280;12670;53.502;10.252;2023-03-03T03:50:15;102040.53;;;2.97;100.00
16120;BME280;12670;53.502;10.252;2023-03-03T03:53:18;102046.00;;;3.18;100.00
16120;BME280;12670;53.502;10.252;2023-03-03T03:56:20;102036.50;;;3.32;100.00
16120;BME280;12670;53.502;10.252;2023-03-03T03:59:24;102033.81;;;3.26;100.00
16120;BME280;12670;53.502;10.252;2023-03-03T04:02:27;102024.16;;;3.17;100.00
16120;BME280;12670;53.502;10.252;2023-03-03T04:05:30;102013.72;;;3.25;100.00
16120;BME280;12670;53.502;10.252;2023-03-03T04:08:32;102017.97;;;3.14;100.00
16120;BME280;12670;53.502;10.252;2023-03-03T04:11:35;102016.34;;;3.25;100.00
16120;BME280;12670;53.502;10.252;2023-03-03T04:14:39;102018.13;;;3.32;100.00
16120;BME280;12670;53.502;10.252;2023-03-03T04:17:42;102017.13;;;3.16;100.00
16120;BME280;12670;53.502;10.252;2023-03-03T04:20:44;102017.81;;;2.99;100.00
16120;BME280;12670;53.502;10.252;2023-03-03T04:23:47;102012.84;;;3.26;100.00
16120;BME280;12670;53.502;10.252;2023-03-03T04:26:50;102012.91;;;3.32;100.00
16120;BME280;12670;53.502;10.252;2023-03-03T04:29:53;102016.44;;;3.34;100.00
16120;BME280;12670;53.502;10.252;2023-03-03T04:32:56;102019.78;;;3.21;100.00
16120;BME280;12670;53.502;10.252;2023-03-03T04:35:59;102017.69;;;2.86;100.00
16120;BME280;12670;53.502;10.252;2023-03-03T04:39:02;102025.63;;;2.89;100.00
16120;BME280;12670;53.502;10.252;2023-03-03T04:42:04;102023.00;;;2.89;100.00
16120;BME280;12670;53.502;10.252;2023-03-03T04:45:09;102024.72;;;2.87;100.00
16120;BME280;12670;53.502;10.252;2023-03-03T04:48:12;102017.81;;;2.99;100.00
16120;BME280;12670;53.502;10.252;2023-03-03T04:51:15;102019.56;;;2.97;100.00
16120;BME280;12670;53.502;10.252;2023-03-03T04:54:19;102032.69;;;2.98;100.00
16120;BME280;12670;53.502;10.252;2023-03-03T04:57:21;102024.16;;;3.22;100.00
16120;BME280;12670;53.502;10.252;2023-03-03T05:00:25;102025.03;;;3.21;100.00
16120;BME280;12670;53.502;10.252;2023-03-03T05:03:28;102028.53;;;3.21;100.00
16120;BME280;12670;53.502;10.252;2023-03-03T05:06:30;102036.50;;;3.34;100.00
16120;BME280;12670;53.502;10.252;2023-03-03T05:09:33;102028.63;;;3.32;100.00
16120;BME280;12670;53.502;10.252;2023-03-03T05:12:36;102027.75;;;3.30;100.00
16120;BME280;12670;53.502;10.252;2023-03-03T05:15:40;102029.44;;;3.24;100.00
16120;BME280;12670;53.502;10.252;2023-03-03T05:18:43;102024.22;;;3.27;100.00
16120;BME280;12670;53.502;10.252;2023-03-03T05:21:46;102024.25;;;3.30;100.00
16120;BME280;12670;53.502;10.252;2023-03-03T05:24:49;102023.34;;;3.25;100.00
16120;BME280;12670;53.502;10.252;2023-03-03T05:27:52;102023.34;;;3.25;100.00
16120;BME280;12670;53.502;10.252;2023-03-03T05:30:56;102024.22;;;3.25;100.00
16120;BME280;12670;53.502;10.252;2023-03-03T05:33:59;102031.22;;;3.28;100.00
16120;BME280;12670;53.502;10.252;2023-03-03T05:37:01;102026.63;;;3.04;100.00
16120;BME280;12670;53.502;10.252;2023-03-03T05:40:08;102030.28;;;3.18;100.00
16120;BME280;12670;53.502;10.252;2023-03-03T05:43:11;102039.03;;;3.21;100.00
16120;BME280;12670;53.502;10.252;2023-03-03T05:46:15;102039.03;;;3.20;100.00
16120;BME280;12670;53.502;10.252;2023-03-03T05:49:17;102043.16;;;2.98;100.00
16120;BME280;12670;53.502;10.252;2023-03-03T05:52:20;102040.59;;;3.00;100.00
16120;BME280;12670;53.502;10.252;2023-03-03T05:55:24;102035.84;;;2.68;100.00
16120;BME280;12670;53.502;10.252;2023-03-03T05:58:27;102035.91;;;2.74;100.00
16120;BME280;12670;53.502;10.252;2023-03-03T06:01:31;102038.78;;;2.99;100.00
16120;BME280;12670;53.502;10.252;2023-03-03T06:04:34;102037.00;;;2.93;100.00
16120;BME280;12670;53.502;10.252;2023-03-03T06:07:36;102034.59;;;3.11;100.00
16120;BME280;12670;53.502;10.252;2023-03-03T06:10:39;102037.97;;;3.04;100.00
16120;BME280;12670;53.502;10.252;2023-03-03T06:13:42;102038.75;;;2.92;100.00
16120;BME280;12670;53.502;10.252;2023-03-03T06:16:46;102053.63;;;2.95;100.00
16120;BME280;12670;53.502;10.252;2023-03-03T06:19:48;102050.03;;;2.85;100.00
16120;BME280;12670;53.502;10.252;2023-03-03T06:22:51;102044.09;;;3.00;100.00
16120;BME280;12670;53.502;10.252;2023-03-03T06:25:54;102051.09;;;3.03;100.00
16120;BME280;12670;53.502;10.252;2023-03-03T06:28:57;102060.75;;;3.05;100.00
16120;BME280;12670;53.502;10.252;2023-03-03T06:32:01;102060.59;;;2.93;100.00
16120;BME280;12670;53.502;10.252;2023-03-03T06:35:05;102071.31;;;3.16;100.00
16120;BME280;12670;53.502;10.252;2023-03-03T06:38:07;102075.75;;;3.20;100.00
16120;BME280;12670;53.502;10.252;2023-03-03T06:41:10;102066.88;;;3.09;100.00
16120;BME280;12670;53.502;10.252;2023-03-03T06:44:13;102062.44;;;3.02;100.00
16120;BME280;12670;53.502;10.252;2023-03-03T06:47:17;102060.06;;;3.26;100.00
16120;BME280;12670;53.502;10.252;2023-03-03T06:50:20;102067.78;;;3.11;100.00
16120;BME280;12670;53.502;10.252;2023-03-03T06:53:22;102065.81;;;2.93;100.00
16120;BME280;12670;53.502;10.252;2023-03-03T06:56:27;102071.34;;;3.17;100.00
16120;BME280;12670;53.502;10.252;2023-03-03T06:59:29;102063.88;;;2.75;100.00
16120;BME280;12670;53.502;10.252;2023-03-03T07:02:33;102065.06;;;3.05;100.00
16120;BME280;12670;53.502;10.252;2023-03-03T07:05:36;102064.66;;;2.65;100.00
16120;BME280;12670;53.502;10.252;2023-03-03T07:08:39;102072.81;;;2.91;100.00
16120;BME280;12670;53.502;10.252;2023-03-03T07:11:42;102078.97;;;2.96;100.00
16120;BME280;12670;53.502;10.252;2023-03-03T07:14:49;102099.22;;;3.06;100.00
16120;BME280;12670;53.502;10.252;2023-03-03T07:17:57;102102.66;;;3.04;100.00
16120;BME280;12670;53.502;10.252;2023-03-03T07:21:07;102113.38;;;3.24;100.00
16120;BME280;12670;53.502;10.252;2023-03-03T07:24:24;102115.34;;;2.67;100.00
16120;BME280;12670;53.502;10.252;2023-03-03T07:27:29;102113.81;;;2.84;100.00
16120;BME280;12670;53.502;10.252;2023-03-03T07:30:32;102111.31;;;2.97;100.00
16120;BME280;12670;53.502;10.252;2023-03-03T07:33:41;102113.75;;;2.80;100.00
16120;BME280;12670;53.502;10.252;2023-03-03T07:36:45;102115.16;;;2.53;100.00
16120;BME280;12670;53.502;10.252;2023-03-03T07:39:49;102117.00;;;2.59;100.00
16120;BME280;12670;53.502;10.252;2023-03-03T07:42:52;102120.94;;;2.94;100.00
16120;BME280;12670;53.502;10.252;2023-03-03T07:45:58;102122.06;;;3.19;100.00
16120;BME280;12670;53.502;10.252;2023-03-03T07:49:15;102123.13;;;3.35;100.00
16120;BME280;12670;53.502;10.252;2023-03-03T07:52:27;102120.50;;;3.35;100.00
16120;BME280;12670;53.502;10.252;2023-03-03T07:55:34;102115.06;;;3.17;100.00
16120;BME280;12670;53.502;10.252;2023-03-03T07:58:39;102110.53;;;3.04;100.00
16120;BME280;12670;53.502;10.252;2023-03-03T08:01:43;102101.22;;;3.32;100.00
16120;BME280;12670;53.502;10.252;2023-03-03T08:04:51;102110.06;;;3.44;100.00
16120;BME280;12670;53.502;10.252;2023-03-03T08:08:05;102109.19;;;3.45;100.00
16120;BME280;12670;53.502;10.252;2023-03-03T08:11:13;102107.50;;;3.51;100.00
16120;BME280;12670;53.502;10.252;2023-03-03T08:14:24;102116.28;;;3.53;100.00
16120;BME280;12670;53.502;10.252;2023-03-03T08:17:35;102109.28;;;3.55;100.00
16120;BME280;12670;53.502;10.252;2023-03-03T08:20:43;102107.31;;;3.31;100.00
16120;BME280;12670;53.502;10.252;2023-03-03T08:23:47;102104.75;;;3.38;100.00
16120;BME280;12670;53.502;10.252;2023-03-03T08:26:51;102110.94;;;3.40;100.00
16120;BME280;12670;53.502;10.252;2023-03-03T08:29:54;102104.44;;;3.06;100.00
16120;BME280;12670;53.502;10.252;2023-03-03T08:32:57;102108.81;;;3.06;100.00
16120;BME280;12670;53.502;10.252;2023-03-03T08:36:01;102107.34;;;3.32;100.00
16120;BME280;12670;53.502;10.252;2023-03-03T08:39:04;102110.66;;;3.16;100.00
16120;BME280;12670;53.502;10.252;2023-03-03T08:42:06;102107.38;;;3.35;100.00
16120;BME280;12670;53.502;10.252;2023-03-03T08:45:09;102105.72;;;3.46;100.00
16120;BME280;12670;53.502;10.252;2023-03-03T08:48:12;102100.50;;;3.46;100.00
16120;BME280;12670;53.502;10.252;2023-03-03T08:51:16;102105.56;;;3.31;100.00
16120;BME280;12670;53.502;10.252;2023-03-03T08:54:19;102109.97;;;3.34;100.00
16120;BME280;12670;53.502;10.252;2023-03-03T08:57:22;102109.66;;;3.05;100.00
16120;BME280;12670;53.502;10.252;2023-03-03T09:00:25;102105.50;;;3.25;100.00
16120;BME280;12670;53.502;10.252;2023-03-03T09:03:28;102106.38;;;3.26;100.00
16120;BME280;12670;53.502;10.252;2023-03-03T09:06:32;102109.81;;;3.18;100.00
16120;BME280;12670;53.502;10.252;2023-03-03T09:09:35;102116.28;;;3.54;100.00
16120;BME280;12670;53.502;10.252;2023-03-03T09:12:41;102108.31;;;3.40;100.00
16120;BME280;12670;53.502;10.252;2023-03-03T09:15:46;102119.63;;;3.39;100.00
16120;BME280;12670;53.502;10.252;2023-03-03T09:18:49;102127.56;;;3.42;100.00
16120;BME280;12670;53.502;10.252;2023-03-03T09:21:55;102125.97;;;3.60;100.00
16120;BME280;12670;53.502;10.252;2023-03-03T09:24:58;102128.19;;;3.18;100.00
16120;BME280;12670;53.502;10.252;2023-03-03T09:28:01;102121.31;;;3.33;100.00
16120;BME280;12670;53.502;10.252;2023-03-03T09:31:20;102115.53;;;3.67;100.00
16120;BME280;12670;53.502;10.252;2023-03-03T09:34:26;102118.09;;;3.63;100.00
16120;BME280;12670;53.502;10.252;2023-03-03T09:37:35;102121.59;;;3.63;100.00
16120;BME280;12670;53.502;10.252;2023-03-03T09:40:49;102130.50;;;3.76;100.00
16120;BME280;12670;53.502;10.252;2023-03-03T09:44:08;102134.81;;;3.71;100.00
16120;BME280;12670;53.502;10.252;2023-03-03T09:47:43;102133.84;;;3.58;100.00
16120;BME280;12670;53.502;10.252;2023-03-03T09:50:59;102137.44;;;3.74;100.00
16120;BME280;12670;53.502;10.252;2023-03-03T09:54:14;102135.44;;;3.45;100.00
16120;BME280;12670;53.502;10.252;2023-03-03T09:57:23;102136.41;;;3.57;100.00
16120;BME280;12670;53.502;10.252;2023-03-03T10:00:39;102142.59;;;3.59;100.00
16120;BME280;12670;53.502;10.252;2023-03-03T10:07:25;102141.22;;;4.10;100.00
16120;BME280;12670;53.502;10.252;2023-03-03T10:10:44;102141.16;;;3.97;100.00
16120;BME280;12670;53.502;10.252;2023-03-03T10:14:11;102148.09;;;3.89;100.00
16120;BME280;12670;53.502;10.252;2023-03-03T10:17:31;102145.38;;;3.76;100.00
16120;BME280;12670;53.502;10.252;2023-03-03T10:20:51;102143.47;;;3.58;100.00
16120;BME280;12670;53.502;10.252;2023-03-03T10:24:09;102137.53;;;3.83;100.00
16120;BME280;12670;53.502;10.252;2023-03-03T10:27:29;102136.56;;;3.73;100.00
16120;BME280;12670;53.502;10.252;2023-03-03T10:30:44;102138.56;;;4.04;100.00
16120;BME280;12670;53.502;10.252;2023-03-03T10:34:18;102131.66;;;4.13;100.00
16120;BME280;12670;53.502;10.252;2023-03-03T10:37:27;102131.94;;;3.43;100.00
16120;BME280;12670;53.502;10.252;2023-03-03T10:40:34;102126.94;;;3.74;100.00
16120;BME280;12670;53.502;10.252;2023-03-03T10:43:54;102124.22;;;3.63;100.00
16120;BME280;12670;53.502;10.252;2023-03-03T10:47:30;102122.47;;;3.62;100.00
16120;BME280;12670;53.502;10.252;2023-03-03T10:50:46;102116.28;;;3.54;100.00
16120;BME280;12670;53.502;10.252;2023-03-03T10:54:01;102123.28;;;3.54;100.00
16120;BME280;12670;53.502;10.252;2023-03-03T10:57:14;102123.25;;;3.51;100.00
16120;BME280;12670;53.502;10.252;2023-03-03T11:00:23;102113.97;;;3.92;100.00
16120;BME280;12670;53.502;10.252;2023-03-03T11:07:12;102113.38;;;4.30;100.00
16120;BME280;12670;53.502;10.252;2023-03-03T11:10:29;102118.44;;;4.03;100.00
16120;BME280;12670;53.502;10.252;2023-03-03T11:13:42;102113.22;;;4.06;100.00
16120;BME280;12670;53.502;10.252;2023-03-03T11:16:55;102099.25;;;4.16;100.00
16120;BME280;12670;53.502;10.252;2023-03-03T11:20:06;102095.84;;;4.32;100.00
16120;BME280;12670;53.502;10.252;2023-03-03T11:23:26;102094.84;;;4.09;100.00
16120;BME280;12670;53.502;10.252;2023-03-03T11:26:39;102092.41;;;4.45;100.00
16120;BME280;12670;53.502;10.252;2023-03-03T11:30:02;102086.38;;;4.59;100.00
16120;BME280;12670;53.502;10.252;2023-03-03T11:33:17;102084.63;;;4.68;100.00
16120;BME280;12670;53.502;10.252;2023-03-03T11:36:26;102084.56;;;4.48;100.00
16120;BME280;12670;53.502;10.252;2023-03-03T11:39:30;102087.34;;;4.91;100.00
16120;BME280;12670;53.502;10.252;2023-03-03T11:42:41;102085.56;;;4.78;100.00
16120;BME280;12670;53.502;10.252;2023-03-03T11:45:51;102075.94;;;4.81;100.00
16120;BME280;12670;53.502;10.252;2023-03-03T11:49:02;102076.78;;;4.76;100.00
16120;BME280;12670;53.502;10.252;2023-03-03T11:52:16;102068.03;;;4.86;100.00
16120;BME280;12670;53.502;10.252;2023-03-03T11:55:26;102064.56;;;4.87;100.00
16120;BME280;12670;53.502;10.252;2023-03-03T11:58:38;102061.09;;;5.09;100.00
16120;BME280;12670;53.502;10.252;2023-03-03T12:01:49;102053.19;;;5.00;100.00
16120;BME280;12670;53.502;10.252;2023-03-03T12:04:58;102054.94;;;5.01;100.00
16120;BME280;12670;53.502;10.252;2023-03-03T12:08:07;102054.91;;;4.92;100.00
16120;BME280;12670;53.502;10.252;2023-03-03T12:11:20;102047.94;;;5.05;100.00
16120;BME280;12670;53.502;10.252;2023-03-03T12:14:37;102046.16;;;4.87;100.00
16120;BME280;12670;53.502;10.252;2023-03-03T12:18:10;102041.78;;;5.01;100.00
16120;BME280;12670;53.502;10.252;2023-03-03T12:21:33;102028.66;;;5.30;100.00
16120;BME280;12670;53.502;10.252;2023-03-03T12:24:52;102033.91;;;5.14;100.00
16120;BME280;12670;53.502;10.252;2023-03-03T12:28:03;102025.16;;;5.33;100.00
16120;BME280;12670;53.502;10.252;2023-03-03T12:31:16;102033.06;;;5.42;100.00
16120;BME280;12670;53.502;10.252;2023-03-03T12:34:26;102023.38;;;5.69;100.00
16120;BME280;12670;53.502;10.252;2023-03-03T12:37:46;102013.72;;;5.77;100.00
16120;BME280;12670;53.502;10.252;2023-03-03T12:40:57;102019.00;;;5.72;100.00
16120;BME280;12670;53.502;10.252;2023-03-03T12:44:05;102010.25;;;5.52;100.00
16120;BME280;12670;53.502;10.252;2023-03-03T12:47:14;102013.72;;;5.68;100.00
16120;BME280;12670;53.502;10.252;2023-03-03T12:50:29;101995.28;;;5.94;100.00
16120;BME280;12670;53.502;10.252;2023-03-03T12:53:47;101985.44;;;6.46;100.00
16120;BME280;12670;53.502;10.252;2023-03-03T12:56:53;101984.94;;;7.19;96.40
16120;BME280;12670;53.502;10.252;2023-03-03T13:00:18;101957.84;;;7.90;90.36
16120;BME280;12670;53.502;10.252;2023-03-03T13:03:34;101955.16;;;7.96;86.99
16120;BME280;12670;53.502;10.252;2023-03-03T13:06:58;101955.13;;;7.99;87.95
16120;BME280;12670;53.502;10.252;2023-03-03T13:10:15;101950.59;;;8.07;87.92
16120;BME280;12670;53.502;10.252;2023-03-03T13:13:23;101961.69;;;7.61;86.39
16120;BME280;12670;53.502;10.252;2023-03-03T13:16:32;101962.13;;;7.15;90.65
16120;BME280;12670;53.502;10.252;2023-03-03T13:19:45;101952.56;;;6.99;91.28
16120;BME280;12670;53.502;10.252;2023-03-03T13:22:54;101947.97;;;7.24;92.27
16120;BME280;12670;53.502;10.252;2023-03-03T13:26:04;101950.56;;;7.29;90.89
16120;BME280;12670;53.502;10.252;2023-03-03T13:29:14;101952.25;;;7.36;90.35
16120;BME280;12670;53.502;10.252;2023-03-03T13:32:22;101956.00;;;7.09;92.67
16120;BME280;12670;53.502;10.252;2023-03-03T13:35:32;101945.34;;;7.19;92.65
16120;BME280;12670;53.502;10.252;2023-03-03T13:38:40;101945.31;;;7.24;91.55
16120;BME280;12670;53.502;10.252;2023-03-03T13:41:50;101942.38;;;7.56;91.48
16120;BME280;12670;53.502;10.252;2023-03-03T13:44:57;101932.03;;;7.32;91.88
16120;BME280;12670;53.502;10.252;2023-03-03T13:48:12;101935.88;;;6.95;93.06
16120;BME280;12670;53.502;10.252;2023-03-03T13:51:22;101921.13;;;6.67;93.41
16120;BME280;12670;53.502;10.252;2023-03-03T13:54:55;101927.97;;;6.95;94.10
16120;BME280;12670;53.502;10.252;2023-03-03T13:58:07;101924.47;;;6.93;94.50
16120;BME280;12670;53.502;10.252;2023-03-03T14:01:16;101909.53;;;6.91;93.90
16120;BME280;12670;53.502;10.252;2023-03-03T14:04:30;101913.22;;;6.68;91.66
16120;BME280;12670;53.502;10.252;2023-03-03T14:07:37;101899.16;;;6.70;92.30
16120;BME280;12670;53.502;10.252;2023-03-03T14:10:46;101900.81;;;6.80;90.22
16120;BME280;12670;53.502;10.252;2023-03-03T14:13:59;101893.84;;;6.76;89.13
16120;BME280;12670;53.502;10.252;2023-03-03T14:17:11;101891.16;;;6.80;88.28
16120;BME280;12670;53.502;10.252;2023-03-03T14:20:20;101884.88;;;6.98;86.96
16120;BME280;12670;53.502;10.252;2023-03-03T14:23:31;101884.84;;;6.97;87.04
16120;BME280;12670;53.502;10.252;2023-03-03T14:26:45;101890.91;;;7.08;85.28
16120;BME280;12670;53.502;10.252;2023-03-03T14:29:51;101875.31;;;6.83;86.87
16120;BME280;12670;53.502;10.252;2023-03-03T14:33:02;101870.88;;;6.85;85.97
16120;BME280;12670;53.502;10.252;2023-03-03T14:36:11;101870.16;;;6.66;88.00
16120;BME280;12670;53.502;10.252;2023-03-03T14:39:28;101859.56;;;6.71;88.08
16120;BME280;12670;53.502;10.252;2023-03-03T14:42:35;101871.94;;;6.64;87.48
16120;BME280;12670;53.502;10.252;2023-03-03T14:45:40;101865.78;;;6.65;87.29
16120;BME280;12670;53.502;10.252;2023-03-03T14:48:49;101851.78;;;6.57;87.18
16120;BME280;12670;53.502;10.252;2023-03-03T14:51:52;101859.72;;;6.50;86.29
16120;BME280;12670;53.502;10.252;2023-03-03T14:54:56;101851.00;;;6.38;85.71
16120;BME280;12670;53.502;10.252;2023-03-03T14:58:00;101857.09;;;6.51;85.08
16120;BME280;12670;53.502;10.252;2023-03-03T15:01:16;101830.69;;;6.57;85.19
16120;BME280;12670;53.502;10.252;2023-03-03T15:04:24;101832.38;;;6.61;84.59
16120;BME280;12670;53.502;10.252;2023-03-03T15:07:30;101843.03;;;6.52;85.62
16120;BME280;12670;53.502;10.252;2023-03-03T15:10:35;101833.44;;;6.42;85.93
16120;BME280;12670;53.502;10.252;2023-03-03T15:13:38;101823.72;;;6.47;85.92
16120;BME280;12670;53.502;10.252;2023-03-03T15:16:42;101829.09;;;6.32;85.03
16120;BME280;12670;53.502;10.252;2023-03-03T15:20:14;101821.22;;;6.30;85.87
16120;BME280;12670;53.502;10.252;2023-03-03T15:23:30;101826.47;;;6.33;85.89
16120;BME280;12670;53.502;10.252;2023-03-03T15:26:43;101829.19;;;6.23;85.73
16120;BME280;12670;53.502;10.252;2023-03-03T15:29:57;101822.16;;;6.19;85.88
16120;BME280;12670;53.502;10.252;2023-03-03T15:33:13;101823.13;;;6.05;85.82
16120;BME280;12670;53.502;10.252;2023-03-03T15:36:26;101824.03;;;6.01;85.50
16120;BME280;12670;53.502;10.252;2023-03-03T15:39:37;101818.75;;;6.04;85.91
16120;BME280;12670;53.502;10.252;2023-03-03T15:42:47;101824.88;;;6.03;84.89
16120;BME280;12670;53.502;10.252;2023-03-03T15:45:58;101809.97;;;6.05;86.34
16120;BME280;12670;53.502;10.252;2023-03-03T15:49:17;101810.69;;;6.26;84.87
16120;BME280;12670;53.502;10.252;2023-03-03T15:52:32;101798.47;;;6.17;86.27
16120;BME280;12670;53.502;10.252;2023-03-03T15:55:46;101800.25;;;6.09;86.18
16120;BME280;12670;53.502;10.252;2023-03-03T15:59:18;101804.59;;;6.18;86.33
16120;BME280;12670;53.502;10.252;2023-03-03T16:02:25;101803.69;;;6.20;86.16
16120;BME280;12670;53.502;10.252;2023-03-03T16:05:39;101794.97;;;6.17;86.93
16120;BME280;12670;53.502;10.252;2023-03-03T16:08:55;101801.13;;;6.12;87.19
16120;BME280;12670;53.502;10.252;2023-03-03T16:12:07;101797.66;;;6.07;87.95
16120;BME280;12670;53.502;10.252;2023-03-03T16:15:43;101802.81;;;6.20;87.38
16120;BME280;12670;53.502;10.252;2023-03-03T16:19:00;101806.34;;;6.22;87.86
16120;BME280;12670;53.502;10.252;2023-03-03T16:22:40;101802.81;;;6.23;88.05
16120;BME280;12670;53.502;10.252;2023-03-03T16:26:04;101804.53;;;6.27;87.72
16120;BME280;12670;53.502;10.252;2023-03-03T16:32:39;101813.44;;;6.07;88.14
16120;BME280;12670;53.502;10.252;2023-03-03T16:35:47;101811.63;;;6.15;87.76
16120;BME280;12670;53.502;10.252;2023-03-03T16:39:01;101811.72;;;6.03;87.65
16120;BME280;12670;53.502;10.252;2023-03-03T16:42:10;101814.25;;;6.15;88.19
16120;BME280;12670;53.502;10.252;2023-03-03T16:45:21;101816.97;;;6.03;88.73
16120;BME280;12670;53.502;10.252;2023-03-03T16:48:36;101811.66;;;6.12;87.72
16120;BME280;12670;53.502;10.252;2023-03-03T16:51:47;101806.41;;;6.09;88.14
16120;BME280;12670;53.502;10.252;2023-03-03T16:54:55;101813.41;;;6.17;87.53
16120;BME280;12670;53.502;10.252;2023-03-03T16:58:08;101810.84;;;6.04;87.59
16120;BME280;12670;53.502;10.252;2023-03-03T17:01:22;101804.78;;;5.84;88.09
16120;BME280;12670;53.502;10.252;2023-03-03T17:04:37;101808.25;;;5.91;87.66
16120;BME280;12670;53.502;10.252;2023-03-03T17:07:42;101814.47;;;5.77;88.03
16120;BME280;12670;53.502;10.252;2023-03-03T17:10:50;101809.16;;;5.80;86.81
16120;BME280;12670;53.502;10.252;2023-03-03T17:14:08;101808.38;;;5.65;87.66
16120;BME280;12670;53.502;10.252;2023-03-03T17:17:21;101812.81;;;5.50;88.58
16120;BME280;12670;53.502;10.252;2023-03-03T17:20:31;101813.69;;;5.49;89.22
16120;BME280;12670;53.502;10.252;2023-03-03T17:23:44;101810.13;;;5.66;89.89
16120;BME280;12670;53.502;10.252;2023-03-03T17:26:59;101809.16;;;5.86;89.55
16120;BME280;12670;53.502;10.252;2023-03-03T17:30:13;101813.53;;;5.86;89.16
16120;BME280;12670;53.502;10.252;2023-03-03T17:33:31;101815.34;;;5.78;90.22
16120;BME280;12670;53.502;10.252;2023-03-03T17:36:45;101814.56;;;5.54;90.48
16120;BME280;12670;53.502;10.252;2023-03-03T17:40:13;101815.41;;;5.66;92.06
16120;BME280;12670;53.502;10.252;2023-03-03T17:43:22;101811.00;;;5.61;91.54
16120;BME280;12670;53.502;10.252;2023-03-03T17:46:32;101811.91;;;5.60;91.92
16120;BME280;12670;53.502;10.252;2023-03-03T17:49:45;101811.06;;;5.49;91.63
16120;BME280;12670;53.502;10.252;2023-03-03T17:53:00;101807.50;;;5.61;92.74
16120;BME280;12670;53.502;10.252;2023-03-03T17:56:15;101805.78;;;5.58;92.13
16120;BME280;12670;53.502;10.252;2023-03-03T17:59:34;101804.84;;;5.62;92.21
16120;BME280;12670;53.502;10.252;2023-03-03T18:06:30;101813.63;;;5.68;91.44
16120;BME280;12670;53.502;10.252;2023-03-03T18:09:51;101810.16;;;5.55;92.64
16120;BME280;12670;53.502;10.252;2023-03-03T18:13:06;101809.31;;;5.53;93.12
16120;BME280;12670;53.502;10.252;2023-03-03T18:16:20;101811.94;;;5.50;92.49
16120;BME280;12670;53.502;10.252;2023-03-03T18:19:40;101801.41;;;5.45;92.50
16120;BME280;12670;53.502;10.252;2023-03-03T18:22:50;101808.41;;;5.55;92.14
16120;BME280;12670;53.502;10.252;2023-03-03T18:25:55;101804.84;;;5.69;92.28
16120;BME280;12670;53.502;10.252;2023-03-03T18:29:18;101809.25;;;5.70;92.48
16120;BME280;12670;53.502;10.252;2023-03-03T18:32:22;101815.38;;;5.72;91.29
16120;BME280;12670;53.502;10.252;2023-03-03T18:35:28;101807.38;;;5.85;92.39
16120;BME280;12670;53.502;10.252;2023-03-03T18:38:37;101804.81;;;5.78;90.85
16120;BME280;12670;53.502;10.252;2023-03-03T18:42:06;101806.56;;;5.82;91.71
16120;BME280;12670;53.502;10.252;2023-03-03T18:48:57;101800.41;;;5.81;92.04
16120;BME280;12670;53.502;10.252;2023-03-03T18:52:18;101791.66;;;5.72;91.61
16120;BME280;12670;53.502;10.252;2023-03-03T18:55:23;101784.63;;;5.74;92.01
16120;BME280;12670;53.502;10.252;2023-03-03T18:58:33;101782.00;;;5.74;91.58
16120;BME280;12670;53.502;10.252;2023-03-03T19:01:42;101783.84;;;5.59;92.90
16120;BME280;12670;53.502;10.252;2023-03-03T19:04:51;101789.13;;;5.50;93.33
16120;BME280;12670;53.502;10.252;2023-03-03T19:07:57;101790.03;;;5.45;93.93
16120;BME280;12670;53.502;10.252;2023-03-03T19:11:01;101785.66;;;5.39;93.87
16120;BME280;12670;53.502;10.252;2023-03-03T19:14:18;101782.97;;;5.56;93.85
16120;BME280;12670;53.502;10.252;2023-03-03T19:17:47;101784.78;;;5.39;95.11
16120;BME280;12670;53.502;10.252;2023-03-03T19:20:57;101783.88;;;5.52;94.96
16120;BME280;12670;53.502;10.252;2023-03-03T19:24:02;101780.41;;;5.42;95.21
16120;BME280;12670;53.502;10.252;2023-03-03T19:27:27;101769.94;;;5.24;95.83
16120;BME280;12670;53.502;10.252;2023-03-03T19:30:41;101771.69;;;5.25;96.43
16120;BME280;12670;53.502;10.252;2023-03-03T19:33:49;101764.63;;;5.36;96.65
16120;BME280;12670;53.502;10.252;2023-03-03T19:37:09;101762.84;;;5.41;96.10
16120;BME280;12670;53.502;10.252;2023-03-03T19:40:20;101761.09;;;5.42;97.60
16120;BME280;12670;53.502;10.252;2023-03-03T19:43:34;101769.91;;;5.27;98.07
16120;BME280;12670;53.502;10.252;2023-03-03T19:46:51;101767.28;;;5.30;97.55
16120;BME280;12670;53.502;10.252;2023-03-03T19:50:10;101775.19;;;5.27;97.55
16120;BME280;12670;53.502;10.252;2023-03-03T19:53:27;101774.34;;;5.09;98.81